Time;durP1;ratioP1;P1;durP2;ratioP2;P2;SDS_P1;SDS_P2;PMS_P1;PMS_P2;Temp;Humidity;BMP_temperature;BMP_pressure;BME280_temperature;BME280_humidity;BME280_pressure;Samples;Min_cycle;Max_cycle;Signal;HPM_P1;HPM_P2
2021/11/18 00:01:14;;;;;;;231.57;145.48;;;128.30;2252.80;;;;;;5081172;28;20027;-75
2021/11/18 00:03:40;;;;;;;242.50;153.10;;;128.40;2252.80;;;;;;5077329;28;20080;-75
2021/11/18 00:06:06;;;;;;;257.77;160.85;;;128.50;2252.80;;;;;;5076791;28;20024;-75
2021/11/18 00:08:32;;;;;;;252.02;151.85;;;128.50;2252.80;;;;;;5076447;28;20031;-75
2021/11/18 00:11:04;;;;;;;257.08;154.63;;;128.50;2252.80;;;;;;5094338;28;20650;-75
2021/11/18 00:13:34;;;;;;;246.80;151.48;;;128.60;2252.80;;;;;;5076212;28;20039;-75
2021/11/18 00:16:00;;;;;;;236.27;151.38;;;128.60;2252.80;;;;;;5075989;28;20027;-75
2021/11/18 00:18:30;;;;;;;249.00;153.60;;;128.60;2252.80;;;;;;5076539;28;20107;-75
2021/11/18 00:20:59;;;;;;;247.07;150.02;;;128.50;2252.80;;;;;;5094252;28;20023;-75
2021/11/18 00:23:29;;;;;;;256.40;158.15;;;128.40;2252.80;;;;;;5094067;28;20024;-75
2021/11/18 00:25:55;;;;;;;266.40;171.38;;;128.30;2252.80;;;;;;5076118;28;20034;-75
2021/11/18 00:28:21;;;;;;;240.90;154.63;;;128.30;2252.80;;;;;;5076317;28;20040;-75
2021/11/18 00:30:47;;;;;;;249.85;154.32;;;128.30;2252.80;;;;;;5093566;28;20371;-75
2021/11/18 00:33:13;;;;;;;253.52;162.80;;;128.30;2252.80;;;;;;5094089;28;20024;-74
2021/11/18 00:35:39;;;;;;;246.75;154.32;;;128.30;2252.80;;;;;;5094285;28;20066;-75
2021/11/18 00:38:06;;;;;;;266.65;161.75;;;128.40;2252.80;;;;;;5075864;28;20024;-75
2021/11/18 00:40:35;;;;;;;266.35;154.38;;;128.30;2252.80;;;;;;5094354;28;20398;-75
2021/11/18 00:43:08;;;;;;;249.18;152.00;;;128.30;2252.80;;;;;;5093894;28;20219;-75
2021/11/18 00:45:34;;;;;;;242.75;147.82;;;128.30;2252.80;;;;;;5076174;28;20016;-75
2021/11/18 00:48:00;;;;;;;245.82;149.80;;;128.20;2252.80;;;;;;5075652;28;20498;-75
2021/11/18 00:50:33;;;;;;;240.02;147.25;;;128.20;2252.80;;;;;;5076056;28;20069;-75
2021/11/18 00:52:59;;;;;;;239.27;141.65;;;128.20;2252.80;;;;;;5093595;28;20532;-75
2021/11/18 00:55:27;;;;;;;235.50;143.90;;;128.20;2252.80;;;;;;5093708;28;20102;-75
2021/11/18 00:57:53;;;;;;;244.88;150.93;;;128.30;2252.80;;;;;;5075711;28;20096;-75
2021/11/18 01:00:26;;;;;;;258.27;158.77;;;128.30;2252.80;;;;;;5075091;28;20111;-75
2021/11/18 01:02:52;;;;;;;269.38;168.68;;;128.30;2252.80;;;;;;5075641;28;20111;-75
2021/11/18 01:05:20;;;;;;;264.63;174.32;;;128.20;2252.80;;;;;;5075539;28;20024;-76
2021/11/18 01:07:46;;;;;;;235.13;140.10;;;128.20;2252.80;;;;;;5093652;28;20048;-75
2021/11/18 01:10:14;;;;;;;215.00;127.55;;;128.20;2252.80;;;;;;5074809;28;20031;-75
2021/11/18 01:12:40;;;;;;;216.48;129.65;;;128.10;2252.80;;;;;;5092825;28;20096;-75
2021/11/18 01:15:08;;;;;;;195.23;122.53;;;128.30;2252.80;;;;;;5093788;28;20086;-75
2021/11/18 01:17:33;;;;;;;200.40;125.07;;;128.20;2252.80;;;;;;5093336;28;20028;-76
2021/11/18 01:19:59;;;;;;;235.10;138.70;;;128.20;2252.80;;;;;;5075483;28;20035;-75
2021/11/18 01:22:26;;;;;;;263.45;156.27;;;128.10;2252.80;;;;;;5074098;28;20100;-76
2021/11/18 01:24:52;;;;;;;251.45;155.20;;;128.20;2252.80;;;;;;5093540;28;20046;-76
2021/11/18 01:27:18;;;;;;;224.63;137.80;;;128.20;2252.80;;;;;;5074654;28;20024;-75
2021/11/18 01:29:43;;;;;;;206.73;118.63;;;128.20;2252.80;;;;;;5092857;28;20367;-76
2021/11/18 01:32:09;;;;;;;207.70;118.93;;;128.20;2252.80;;;;;;5075069;28;20020;-76
2021/11/18 01:34:35;;;;;;;194.90;117.55;;;128.30;2252.80;;;;;;5074795;28;20028;-75
2021/11/18 01:37:01;;;;;;;190.32;111.40;;;128.30;2252.80;;;;;;5073604;28;20498;-75
2021/11/18 01:39:27;;;;;;;191.45;112.05;;;128.20;2252.80;;;;;;5092886;28;20530;-76
2021/11/18 01:41:54;;;;;;;183.57;107.95;;;128.10;2252.80;;;;;;5092311;28;20507;-75
2021/11/18 01:44:31;;;;;;;176.30;104.18;;;128.00;2252.80;;;;;;5074758;28;20436;-75
2021/11/18 01:46:57;;;;;;;178.43;105.10;;;128.10;2252.80;;;;;;5093092;28;20057;-76
2021/11/18 01:49:24;;;;;;;169.55;102.25;;;128.00;2252.80;;;;;;5092838;28;20421;-76
2021/11/18 01:51:52;;;;;;;168.73;101.45;;;128.10;2252.80;;;;;;5093173;28;20012;-76
2021/11/18 01:54:22;;;;;;;192.23;118.57;;;128.10;2252.80;;;;;;5092640;28;20070;-76
2021/11/18 01:56:48;;;;;;;176.05;110.75;;;128.10;2252.80;;;;;;5074424;28;20447;-76
2021/11/18 01:59:17;;;;;;;160.35;98.78;;;128.20;2252.80;;;;;;5074569;28;20073;-78
2021/11/18 02:01:46;;;;;;;165.77;97.47;;;128.20;2252.80;;;;;;5073907;28;20127;-77
2021/11/18 02:04:16;;;;;;;159.73;96.22;;;128.20;2252.80;;;;;;5074871;28;20058;-77
2021/11/18 02:06:48;;;;;;;157.75;96.03;;;128.20;2252.80;;;;;;5074175;28;20058;-77
2021/11/18 02:09:21;;;;;;;155.82;92.22;;;128.30;2252.80;;;;;;5074060;28;20032;-77
2021/11/18 02:12:02;;;;;;;150.80;90.28;;;128.40;2252.80;;;;;;5092203;28;20028;-76
2021/11/18 02:14:28;;;;;;;144.80;87.85;;;128.50;2252.80;;;;;;5086948;28;20032;-76
2021/11/18 02:16:56;;;;;;;147.18;90.20;;;128.60;2252.80;;;;;;5092297;28;20483;-76
2021/11/18 02:19:23;;;;;;;155.90;90.05;;;128.70;2252.80;;;;;;5074441;28;20115;-76
2021/11/18 02:21:51;;;;;;;155.93;93.13;;;128.80;2252.80;;;;;;5092714;28;20027;-77
2021/11/18 02:24:27;;;;;;;160.75;90.80;;;128.80;2252.80;;;;;;5092285;28;20099;-77
2021/11/18 02:26:53;;;;;;;152.23;89.55;;;128.90;2252.80;;;;;;5073975;28;20020;-76
2021/11/18 02:29:21;;;;;;;145.75;84.07;;;153.60;2252.80;;;;;;5074332;28;20028;-76
2021/11/18 02:31:57;;;;;;;161.55;93.75;;;153.70;2252.80;;;;;;5073771;28;20020;-75
2021/11/18 02:34:34;;;;;;;160.38;89.38;;;153.70;2252.80;;;;;;5073951;28;20074;-75
2021/11/18 02:37:00;;;;;;;147.00;85.30;;;153.80;2252.80;;;;;;5074200;28;20029;-75
2021/11/18 02:39:26;;;;;;;141.05;88.43;;;153.90;2252.80;;;;;;5091587;28;20534;-75
2021/11/18 02:41:52;;;;;;;133.05;82.88;;;154.00;2252.80;;;;;;5073474;28;20487;-76
2021/11/18 02:44:18;;;;;;;153.25;87.28;;;154.10;2252.80;;;;;;5091729;28;20040;-76
2021/11/18 02:46:44;;;;;;;138.23;81.47;;;154.10;2252.80;;;;;;5091979;28;20020;-76
2021/11/18 02:49:09;;;;;;;134.43;79.85;;;154.10;2252.80;;;;;;5073616;28;20024;-76
2021/11/18 02:51:35;;;;;;;143.93;84.80;;;154.10;2252.80;;;;;;5092243;28;20382;-76
2021/11/18 02:54:03;;;;;;;140.23;83.65;;;154.10;2252.80;;;;;;5105472;28;20363;-76
2021/11/18 02:56:29;;;;;;;141.57;85.22;;;154.10;2252.80;;;;;;5098391;28;20027;-76
2021/11/18 02:58:55;;;;;;;139.48;85.22;;;154.00;2252.80;;;;;;5098119;28;20506;-76
2021/11/18 03:01:30;;;;;;;145.55;86.15;;;154.10;2252.80;;;;;;5081860;28;20127;-76
2021/11/18 03:03:56;;;;;;;138.48;83.30;;;154.20;2252.80;;;;;;5096352;28;20020;-76
2021/11/18 03:06:21;;;;;;;148.13;85.68;;;154.10;2252.80;;;;;;5076694;28;20035;-76
2021/11/18 03:08:48;;;;;;;145.07;84.93;;;154.10;2252.80;;;;;;5077783;28;20630;-76
2021/11/18 03:11:15;;;;;;;137.75;87.05;;;154.10;2252.80;;;;;;5077284;28;20027;-76
2021/11/18 03:13:41;;;;;;;142.77;85.65;;;154.10;2252.80;;;;;;5077840;28;20111;-76
2021/11/18 03:16:09;;;;;;;152.18;85.50;;;154.10;2252.80;;;;;;5077235;28;20110;-76
2021/11/18 03:18:35;;;;;;;145.40;84.72;;;154.20;2252.80;;;;;;5095715;28;20116;-76
2021/11/18 03:21:03;;;;;;;131.77;83.05;;;154.20;2252.80;;;;;;5077036;28;20505;-76
2021/11/18 03:23:30;;;;;;;149.60;85.72;;;154.30;2252.80;;;;;;5095121;28;20020;-76
2021/11/18 03:25:56;;;;;;;144.35;81.93;;;154.20;2252.80;;;;;;5095543;28;20077;-75
2021/11/18 03:28:27;;;;;;;136.32;81.60;;;154.20;2252.80;;;;;;5095248;28;20020;-75
2021/11/18 03:30:54;;;;;;;140.38;81.68;;;154.30;2252.80;;;;;;5095746;28;20032;-76
2021/11/18 03:33:24;;;;;;;137.32;80.93;;;154.20;2252.80;;;;;;5076776;28;20394;-76
2021/11/18 03:35:51;;;;;;;136.10;81.50;;;154.20;2252.80;;;;;;5095468;28;20021;-75
2021/11/18 03:38:18;;;;;;;131.63;78.95;;;154.30;2252.80;;;;;;5076936;28;20122;-76
2021/11/18 03:40:49;;;;;;;129.95;79.28;;;154.30;2252.80;;;;;;5076700;28;20497;-76
2021/11/18 03:43:20;;;;;;;138.40;77.10;;;154.40;2252.80;;;;;;5077203;28;20040;-75
2021/11/18 03:45:48;;;;;;;140.48;80.07;;;154.40;2252.80;;;;;;5076854;28;20050;-76
2021/11/18 03:48:19;;;;;;;137.93;82.55;;;154.40;2252.80;;;;;;5095420;28;20024;-76
2021/11/18 03:50:45;;;;;;;133.63;82.65;;;154.40;2252.80;;;;;;5076735;28;20546;-76
2021/11/18 03:53:12;;;;;;;141.32;84.13;;;154.30;2252.80;;;;;;5076972;28;20052;-76
2021/11/18 03:55:38;;;;;;;141.45;79.38;;;154.20;2252.80;;;;;;5094912;28;20024;-76
2021/11/18 03:58:06;;;;;;;131.35;79.72;;;154.20;2252.80;;;;;;5075990;28;20047;-76
2021/11/18 04:00:35;;;;;;;138.18;76.80;;;154.10;2252.80;;;;;;5077099;28;20024;-76
2021/11/18 04:03:02;;;;;;;129.38;84.28;;;154.00;2252.80;;;;;;5076823;28;20069;-76
2021/11/18 04:05:29;;;;;;;133.23;79.95;;;154.00;2252.80;;;;;;5094460;28;20027;-76
2021/11/18 04:07:54;;;;;;;138.88;81.55;;;154.00;2252.80;;;;;;5094022;28;20056;-77
2021/11/18 04:10:24;;;;;;;135.77;83.00;;;154.00;2252.80;;;;;;5076760;28;20055;-77
2021/11/18 04:12:50;;;;;;;132.38;80.95;;;154.00;2252.80;;;;;;5076168;28;20028;-76
2021/11/18 04:15:19;;;;;;;129.52;77.85;;;154.00;2252.80;;;;;;5094848;28;20024;-77
2021/11/18 04:17:44;;;;;;;132.68;82.60;;;154.00;2252.80;;;;;;5094888;28;20807;-77
2021/11/18 04:20:13;;;;;;;124.40;74.13;;;153.90;2252.80;;;;;;5094501;28;20099;-76
2021/11/18 04:22:39;;;;;;;131.55;77.82;;;154.00;2252.80;;;;;;5094610;28;20098;-77
2021/11/18 04:25:07;;;;;;;131.40;76.75;;;154.00;2252.80;;;;;;5076221;28;20506;-77
2021/11/18 04:27:33;;;;;;;124.35;77.45;;;154.00;2252.80;;;;;;5094745;28;20049;-76
2021/11/18 04:29:59;;;;;;;134.57;79.88;;;154.10;2252.80;;;;;;5094138;28;20028;-76
2021/11/18 04:32:26;;;;;;;122.38;75.25;;;154.00;2252.80;;;;;;5094510;28;20028;-76
2021/11/18 04:34:53;;;;;;;136.63;77.50;;;154.10;2252.80;;;;;;5075981;28;20051;-76
2021/11/18 04:37:20;;;;;;;130.43;77.90;;;154.10;2252.80;;;;;;5094468;28;20024;-76
2021/11/18 04:39:46;;;;;;;126.07;74.25;;;154.10;2252.80;;;;;;5094436;28;20360;-76
2021/11/18 04:42:14;;;;;;;123.53;75.32;;;154.10;2252.80;;;;;;5075681;28;20463;-76
2021/11/18 04:44:40;;;;;;;121.68;73.05;;;154.10;2252.80;;;;;;5094435;28;20029;-76
2021/11/18 04:47:12;;;;;;;129.25;77.68;;;154.10;2252.80;;;;;;5075547;28;20106;-77
2021/11/18 04:49:39;;;;;;;127.40;73.80;;;154.20;2252.80;;;;;;5076240;28;20024;-76
2021/11/18 04:52:07;;;;;;;116.90;74.63;;;154.20;2252.80;;;;;;5075653;28;20074;-76
2021/11/18 04:54:33;;;;;;;126.32;73.57;;;154.20;2252.80;;;;;;5094170;28;20520;-76
2021/11/18 04:57:00;;;;;;;117.63;72.90;;;154.10;2252.80;;;;;;5075581;28;20035;-76
2021/11/18 04:59:26;;;;;;;123.20;73.65;;;154.20;2252.80;;;;;;5093403;28;20028;-76
2021/11/18 05:01:52;;;;;;;125.80;76.28;;;154.20;2252.80;;;;;;5075852;28;20035;-77
2021/11/18 05:04:18;;;;;;;129.38;75.30;;;154.30;2252.80;;;;;;5093813;28;20028;-76
2021/11/18 05:06:43;;;;;;;126.28;77.75;;;154.30;2252.80;;;;;;5075726;28;20035;-76
2021/11/18 05:09:11;;;;;;;129.15;75.07;;;154.30;2252.80;;;;;;5093571;28;20031;-76
2021/11/18 05:11:38;;;;;;;119.07;73.95;;;154.30;2252.80;;;;;;5074944;28;20032;-76
2021/11/18 05:14:04;;;;;;;122.38;73.55;;;154.40;2252.80;;;;;;5092987;28;20035;-76
2021/11/18 05:16:30;;;;;;;122.22;71.38;;;154.40;2252.80;;;;;;5092253;28;20100;-76
2021/11/18 05:18:56;;;;;;;126.68;71.47;;;154.40;2252.80;;;;;;5092461;28;20501;-76
2021/11/18 05:21:25;;;;;;;121.05;74.80;;;154.40;2252.80;;;;;;5075324;28;20413;-76
2021/11/18 05:23:52;;;;;;;116.72;69.80;;;154.50;2252.80;;;;;;5092874;28;20555;-76
2021/11/18 05:26:20;;;;;;;120.30;71.82;;;154.50;2252.80;;;;;;5074634;28;20479;-76
2021/11/18 05:28:46;;;;;;;124.97;74.03;;;154.40;2252.80;;;;;;5074811;28;20032;-76
2021/11/18 05:31:13;;;;;;;139.93;72.97;;;154.50;2252.80;;;;;;5073524;28;20036;-75
2021/11/18 05:33:39;;;;;;;118.95;71.05;;;154.50;2252.80;;;;;;5093153;28;20039;-75
2021/11/18 05:36:06;;;;;;;130.63;74.03;;;179.20;2252.80;;;;;;5077669;28;20019;-75
2021/11/18 05:38:32;;;;;;;128.30;73.75;;;179.20;2252.80;;;;;;5107820;28;20019;-75
2021/11/18 05:40:58;;;;;;;140.88;79.10;;;179.20;2252.80;;;;;;5091059;28;20040;-75
2021/11/18 05:43:27;;;;;;;143.98;79.60;;;179.30;2252.80;;;;;;5109263;28;20035;-76
2021/11/18 05:45:53;;;;;;;132.70;79.35;;;179.30;2252.80;;;;;;5105182;28;20081;-75
2021/11/18 05:48:20;;;;;;;133.02;77.03;;;179.30;2252.80;;;;;;5073425;28;20032;-74
2021/11/18 05:50:50;;;;;;;130.68;75.35;;;179.30;2252.80;;;;;;5092828;28;20012;-75
2021/11/18 05:53:25;;;;;;;132.13;77.88;;;179.40;2252.80;;;;;;5074317;28;20020;-75
2021/11/18 05:55:53;;;;;;;138.18;76.78;;;179.40;2252.80;;;;;;5092849;28;20429;-76
2021/11/18 05:58:19;;;;;;;129.93;75.20;;;179.50;2252.80;;;;;;5074095;28;20036;-75
2021/11/18 06:00:45;;;;;;;132.27;78.03;;;179.50;2252.80;;;;;;5092316;28;20051;-76
2021/11/18 06:03:11;;;;;;;124.90;75.47;;;179.50;2252.80;;;;;;5073925;28;20079;-76
2021/11/18 06:05:37;;;;;;;129.05;74.68;;;179.50;2252.80;;;;;;5091604;28;20031;-76
2021/11/18 06:08:03;;;;;;;127.80;76.88;;;179.60;2252.80;;;;;;5074249;28;20394;-75
2021/11/18 06:10:30;;;;;;;140.10;78.38;;;179.60;2252.80;;;;;;5091660;28;20020;-76
2021/11/18 06:12:56;;;;;;;123.43;71.97;;;179.70;2252.80;;;;;;5074248;28;20490;-76
2021/11/18 06:15:23;;;;;;;124.88;72.85;;;179.70;2252.80;;;;;;5073438;28;20051;-76
2021/11/18 06:17:49;;;;;;;130.88;74.90;;;179.70;2252.80;;;;;;5074426;28;20113;-76
2021/11/18 06:20:15;;;;;;;119.30;72.93;;;179.80;2252.80;;;;;;5091854;28;20070;-75
2021/11/18 06:22:42;;;;;;;131.43;75.95;;;179.80;2252.80;;;;;;5073581;28;20036;-76
2021/11/18 06:25:12;;;;;;;129.90;75.18;;;179.80;2252.80;;;;;;5092068;28;20028;-76
2021/11/18 06:27:40;;;;;;;127.35;72.05;;;179.80;2252.80;;;;;;5073306;28;20031;-76
2021/11/18 06:30:10;;;;;;;120.45;70.15;;;179.80;2252.80;;;;;;5091575;28;20046;-77
2021/11/18 06:32:36;;;;;;;121.57;74.88;;;179.80;2252.80;;;;;;5073622;28;20069;-75
2021/11/18 06:35:02;;;;;;;128.57;72.85;;;179.90;2252.80;;;;;;5074006;28;20028;-76
2021/11/18 06:37:27;;;;;;;125.28;74.97;;;179.90;2252.80;;;;;;5091913;28;20024;-76
2021/11/18 06:39:53;;;;;;;125.47;71.93;;;180.00;2252.80;;;;;;5070289;28;20032;-76
2021/11/18 06:42:19;;;;;;;124.65;67.95;;;180.00;2252.80;;;;;;5088266;28;20387;-76
2021/11/18 06:44:45;;;;;;;120.38;69.05;;;180.00;2252.80;;;;;;5083173;28;20806;-76
2021/11/18 06:47:10;;;;;;;114.05;64.40;;;180.10;2252.80;;;;;;5086795;28;20103;-75
2021/11/18 06:49:37;;;;;;;114.97;66.13;;;180.10;2252.80;;;;;;5092242;28;20471;-76
2021/11/18 06:52:05;;;;;;;125.13;67.45;;;180.10;2252.80;;;;;;5073567;28;20035;-76
2021/11/18 06:54:31;;;;;;;119.00;67.15;;;180.10;2252.80;;;;;;5091167;28;20040;-75
2021/11/18 06:56:57;;;;;;;114.22;66.53;;;204.90;2252.80;;;;;;5073545;28;20453;-75
2021/11/18 06:59:23;;;;;;;123.70;72.53;;;204.90;2252.80;;;;;;5073042;28;20032;-75
2021/11/18 07:01:50;;;;;;;129.90;70.07;;;204.90;2252.80;;;;;;5073576;28;20506;-75
2021/11/18 07:04:16;;;;;;;127.00;69.72;;;205.00;2252.80;;;;;;5073283;28;20475;-76
2021/11/18 07:06:43;;;;;;;123.97;72.15;;;205.00;2252.80;;;;;;5091940;28;20035;-76
2021/11/18 07:09:09;;;;;;;116.45;67.65;;;205.00;2252.80;;;;;;5073397;28;20032;-75
2021/11/18 07:11:36;;;;;;;113.10;66.38;;;205.00;2252.80;;;;;;5092058;28;20077;-77
2021/11/18 07:14:03;;;;;;;116.25;64.50;;;205.10;2252.80;;;;;;5073884;28;20024;-76
2021/11/18 07:16:28;;;;;;;110.05;65.68;;;205.20;2252.80;;;;;;5073492;28;20363;-75
2021/11/18 07:18:54;;;;;;;114.43;64.22;;;205.20;2252.80;;;;;;5073642;28;20046;-77
2021/11/18 07:21:22;;;;;;;107.90;60.97;;;205.30;2252.80;;;;;;5073509;28;20486;-76
2021/11/18 07:23:50;;;;;;;112.55;61.47;;;205.30;2252.80;;;;;;5073120;28;20032;-76
2021/11/18 07:26:16;;;;;;;110.15;62.85;;;205.40;2252.80;;;;;;5072983;28;20024;-77
2021/11/18 07:28:42;;;;;;;120.70;73.20;;;205.40;2252.80;;;;;;5091843;28;20044;-77
2021/11/18 07:31:09;;;;;;;133.80;71.95;;;205.50;2252.80;;;;;;5072863;28;20028;-76
2021/11/18 07:33:36;;;;;;;135.90;80.25;;;205.30;2252.80;;;;;;5073612;28;20040;-76
2021/11/18 07:36:03;;;;;;;127.60;75.28;;;205.30;2252.80;;;;;;5073233;28;20024;-76
2021/11/18 07:38:31;;;;;;;116.00;65.75;;;205.30;2252.80;;;;;;5091153;28;20028;-77
2021/11/18 07:40:58;;;;;;;114.30;66.85;;;205.30;2252.80;;;;;;5075456;28;20056;-76
2021/11/18 07:43:31;;;;;;;124.93;69.82;;;205.30;2252.80;;;;;;5077005;28;20027;-76
2021/11/18 07:46:01;;;;;;;116.25;67.63;;;205.40;2252.80;;;;;;5092735;28;20024;-77
2021/11/18 07:48:28;;;;;;;106.75;62.47;;;205.40;2252.80;;;;;;5075936;28;20035;-76
2021/11/18 07:50:55;;;;;;;112.85;61.03;;;205.40;2252.80;;;;;;5076265;28;20090;-76
2021/11/18 07:53:20;;;;;;;98.43;60.05;;;205.50;2252.80;;;;;;5076738;28;20020;-76
2021/11/18 07:55:47;;;;;;;103.47;60.30;;;205.50;2252.80;;;;;;5077064;28;20551;-76
2021/11/18 07:58:14;;;;;;;105.97;55.10;;;205.50;2252.80;;;;;;5077026;28;20028;-76
2021/11/18 08:00:44;;;;;;;101.80;58.50;;;205.60;2252.80;;;;;;5076426;28;20115;-75
2021/11/18 08:03:12;;;;;;;103.22;55.80;;;205.50;2252.80;;;;;;5077009;28;20107;-76
2021/11/18 08:05:38;;;;;;;102.07;55.88;;;205.60;2252.80;;;;;;5076308;28;20024;-76
2021/11/18 08:08:05;;;;;;;90.10;51.35;;;205.70;2252.80;;;;;;5076726;28;20726;-76
2021/11/18 08:10:32;;;;;;;91.50;53.13;;;205.60;2252.80;;;;;;5076542;28;20119;-76
2021/11/18 08:12:57;;;;;;;93.53;53.55;;;205.70;2252.80;;;;;;5076541;28;20111;-76
2021/11/18 08:15:23;;;;;;;94.82;53.03;;;230.40;2252.80;;;;;;5076498;28;20186;-76
2021/11/18 08:17:51;;;;;;;94.72;49.97;;;230.50;2252.80;;;;;;5076077;28;20048;-76
2021/11/18 08:20:17;;;;;;;87.57;47.50;;;230.50;2252.80;;;;;;5076427;28;20024;-76
2021/11/18 08:22:44;;;;;;;80.50;46.95;;;230.60;2252.80;;;;;;5075848;28;20040;-75
2021/11/18 08:25:12;;;;;;;76.13;45.22;;;230.70;2252.80;;;;;;5076371;28;20540;-75
2021/11/18 08:27:40;;;;;;;70.43;44.33;;;230.90;2252.80;;;;;;5094565;28;20032;-76
2021/11/18 08:30:27;;;;;;;79.72;43.25;;;230.90;2252.80;;;;;;5094900;28;20027;-75
2021/11/18 08:32:55;;;;;;;81.95;44.80;;;231.10;2252.80;;;;;;5093787;28;20058;-75
2021/11/18 08:35:26;;;;;;;60.88;39.67;;;231.30;2252.80;;;;;;5093538;28;20024;-74
2021/11/18 08:37:52;;;;;;;74.50;38.30;;;256.00;2252.80;;;;;;5093118;28;20038;-75
2021/11/18 08:40:18;;;;;;;71.57;39.65;;;231.30;2252.80;;;;;;5074771;28;20429;-76
2021/11/18 08:42:46;;;;;;;78.18;40.92;;;256.10;2252.80;;;;;;5076073;28;20135;-75
2021/11/18 08:45:12;;;;;;;60.50;35.58;;;256.10;2252.80;;;;;;5075879;28;20056;-75
2021/11/18 08:47:38;;;;;;;69.50;39.17;;;256.20;2252.80;;;;;;5075464;28;20036;-75
2021/11/18 08:50:10;;;;;;;60.10;34.75;;;256.20;2252.80;;;;;;5075236;28;20028;-74
2021/11/18 08:52:37;;;;;;;50.97;32.25;;;256.20;2252.80;;;;;;5075599;28;20024;-74
2021/11/18 08:55:09;;;;;;;50.03;30.02;;;256.20;2252.80;;;;;;5075955;28;20024;-75
2021/11/18 08:57:35;;;;;;;53.83;31.00;;;256.20;2252.80;;;;;;5075636;28;20028;-75
2021/11/18 09:00:02;;;;;;;48.75;30.33;;;256.10;2252.80;;;;;;5075688;28;20032;-74
2021/11/18 09:02:28;;;;;;;46.88;30.70;;;256.10;2252.80;;;;;;5075455;28;20030;-75
2021/11/18 09:04:55;;;;;;;49.65;30.08;;;256.00;2252.80;;;;;;5075195;28;20194;-75
2021/11/18 09:07:21;;;;;;;46.13;30.92;;;256.00;2252.80;;;;;;5093484;28;20020;-75
2021/11/18 09:09:47;;;;;;;57.83;37.28;;;256.10;2252.80;;;;;;5093933;28;20024;-74
2021/11/18 09:12:13;;;;;;;55.65;31.63;;;256.10;2252.80;;;;;;5075463;28;20020;-75
2021/11/18 09:14:40;;;;;;;46.60;28.92;;;256.00;2252.80;;;;;;5074381;28;20035;-75
2021/11/18 09:17:09;;;;;;;49.13;30.92;;;256.00;2252.80;;;;;;5093109;28;20055;-74
2021/11/18 09:19:37;;;;;;;47.28;28.70;;;256.10;2252.80;;;;;;5074892;28;20036;-75
2021/11/18 09:22:07;;;;;;;43.80;27.17;;;256.00;2252.80;;;;;;5074637;28;20517;-75
2021/11/18 09:24:41;;;;;;;47.10;26.38;;;256.10;2252.80;;;;;;5092962;28;20024;-75
2021/11/18 09:27:15;;;;;;;34.85;22.25;;;256.10;2252.80;;;;;;5075278;28;20059;-75
2021/11/18 09:29:42;;;;;;;37.17;21.55;;;256.10;2252.80;;;;;;5093197;28;20054;-75
2021/11/18 09:32:08;;;;;;;38.42;24.50;;;256.10;2252.80;;;;;;5074038;28;20048;-75
2021/11/18 09:34:34;;;;;;;38.88;24.10;;;256.20;2252.80;;;;;;5074036;28;20548;-76
2021/11/18 09:37:00;;;;;;;39.75;23.52;;;256.10;2252.80;;;;;;5092295;28;20028;-74
2021/11/18 09:39:27;;;;;;;42.03;23.85;;;256.10;2252.80;;;;;;5093156;28;20016;-73
2021/11/18 09:42:23;;;;;;;44.88;23.70;;;256.10;2252.80;;;;;;5091249;28;20039;-74
2021/11/18 09:44:57;;;;;;;40.70;24.48;;;256.00;2252.80;;;;;;5029937;28;20042;-74
2021/11/18 09:47:50;;;;;;;35.40;22.30;;;256.00;2252.80;;;;;;5030083;28;20032;-74
2021/11/18 09:50:44;;;;;;;35.85;22.35;;;231.30;2252.80;;;;;;5029631;28;20038;-74
2021/11/18 09:53:42;;;;;;;41.05;24.20;;;231.20;2252.80;;;;;;5029060;28;20045;-74
2021/11/18 09:56:17;;;;;;;33.88;20.92;;;231.30;2252.80;;;;;;5029842;28;20447;-73
2021/11/18 09:59:07;;;;;;;37.53;22.38;;;231.20;2252.80;;;;;;5029934;28;20114;-73
2021/11/18 10:01:47;;;;;;;35.67;20.40;;;231.20;2252.80;;;;;;5029881;28;20053;-74
2021/11/18 10:04:36;;;;;;;37.20;21.52;;;231.30;2252.80;;;;;;5031065;28;20053;-74
2021/11/18 10:07:09;;;;;;;42.08;23.15;;;256.10;2252.80;;;;;;5024211;28;20037;-73
2021/11/18 10:09:59;;;;;;;34.50;20.25;;;256.10;2252.80;;;;;;5031914;28;20127;-74
2021/11/18 10:12:31;;;;;;;32.80;22.17;;;256.20;2252.80;;;;;;5028130;28;20029;-74
2021/11/18 10:15:07;;;;;;;35.67;21.73;;;256.10;2252.80;;;;;;5039414;28;20045;-74
2021/11/18 10:17:35;;;;;;;;;;;256.20;2252.80;;;;;;5034332;28;20064;-74
2021/11/18 10:20:23;;;;;;;34.92;21.33;;;256.10;2252.80;;;;;;5015065;28;20012;-74
2021/11/18 10:23:03;;;;;;;34.08;20.05;;;256.10;2252.80;;;;;;5096547;28;20024;-74
2021/11/18 10:25:39;;;;;;;34.60;21.23;;;256.10;2252.80;;;;;;5092618;28;20040;-74
2021/11/18 10:28:22;;;;;;;34.63;21.00;;;256.20;2252.80;;;;;;5104426;28;20035;-75
2021/11/18 10:31:14;;;;;;;33.63;18.95;;;256.20;2252.80;;;;;;5108415;28;20027;-74
2021/11/18 10:33:59;;;;;;;33.47;19.88;;;256.20;2252.80;;;;;;5097573;28;20455;-74
2021/11/18 10:36:59;;;;;;;33.38;20.30;;;256.20;2252.80;;;;;;5098901;28;20144;-74
2021/11/18 10:39:37;;;;;;;35.40;20.55;;;256.20;2252.80;;;;;;5104011;28;20027;-74
2021/11/18 10:42:28;;;;;;;28.58;18.83;;;256.20;2252.80;;;;;;5105438;28;20772;-74
2021/11/18 10:45:03;;;;;;;34.22;21.65;;;256.20;2252.80;;;;;;5105097;28;20027;-75
2021/11/18 10:47:34;;;;;;;43.13;22.42;;;256.20;2252.80;;;;;;5110807;28;20102;-74
2021/11/18 10:50:03;;;;;;;28.98;19.00;;;256.30;2252.80;;;;;;5098537;28;20032;-74
2021/11/18 10:52:31;;;;;;;29.08;18.55;;;256.30;2252.80;;;;;;5097880;28;20020;-75
2021/11/18 10:55:19;;;;;;;35.28;19.58;;;256.30;2252.80;;;;;;5101420;28;20158;-74
2021/11/18 10:57:56;;;;;;;36.47;20.70;;;256.30;2252.80;;;;;;5077881;28;20032;-74
2021/11/18 11:00:24;;;;;;;;;;;256.30;2252.80;;;;;;5109135;28;20028;-74
2021/11/18 11:02:50;;;;;;;35.00;18.33;;;256.30;2252.80;;;;;;5078387;28;19910;-74
2021/11/18 11:05:40;;;;;;;29.83;18.70;;;256.30;2252.80;;;;;;5091098;28;20081;-74
2021/11/18 11:08:30;;;;;;;33.05;20.98;;;256.20;2252.80;;;;;;5096012;28;20039;-74
2021/11/18 11:11:24;;;;;;;35.78;19.55;;;256.20;2252.80;;;;;;5084689;28;20055;-74
2021/11/18 11:14:05;;;;;;;36.05;21.10;;;256.20;2252.80;;;;;;5105494;28;20483;-74
2021/11/18 11:16:55;;;;;;;31.60;19.65;;;256.30;2252.80;;;;;;5109252;28;20020;-74
2021/11/18 11:19:35;;;;;;;30.10;19.88;;;256.20;2252.80;;;;;;5094102;28;20020;-74
2021/11/18 11:22:09;;;;;;;35.67;19.75;;;256.20;2252.80;;;;;;5108148;28;20030;-74
2021/11/18 11:24:53;;;;;;;27.90;19.17;;;256.20;2252.80;;;;;;5097911;28;20035;-74
2021/11/18 11:27:37;;;;;;;29.67;18.70;;;256.30;2252.80;;;;;;5102531;28;20356;-74
2021/11/18 11:30:21;;;;;;;32.72;19.90;;;256.20;2252.80;;;;;;5111905;28;20073;-74
2021/11/18 11:33:16;;;;;;;31.67;21.00;;;256.20;2252.80;;;;;;5112171;28;20504;-75
2021/11/18 11:36:03;;;;;;;32.75;22.30;;;256.20;2252.80;;;;;;5090189;28;20077;-74
2021/11/18 11:38:49;;;;;;;42.25;26.33;;;256.30;2252.80;;;;;;5102660;28;20106;-74
2021/11/18 11:41:15;;;;;;;30.92;20.13;;;256.30;2252.80;;;;;;5094230;28;20400;-74
2021/11/18 11:43:47;;;;;;;31.45;21.33;;;256.30;2252.80;;;;;;5094956;28;20035;-74
2021/11/18 11:46:19;;;;;;;33.40;20.45;;;256.30;2252.80;;;;;;5092794;28;20055;-74
2021/11/18 11:49:10;;;;;;;31.50;18.73;;;256.30;2252.80;;;;;;5075631;28;20054;-74
2021/11/18 11:51:46;;;;;;;29.13;20.30;;;256.40;2252.80;;;;;;5091908;28;20723;-73
2021/11/18 11:54:11;;;;;;;32.70;20.10;;;256.50;2252.80;;;;;;5093732;28;20035;-74
2021/11/18 11:56:50;;;;;;;35.13;21.00;;;256.60;2252.80;;;;;;5087688;28;20034;-74
2021/11/18 11:59:20;;;;;;;30.20;17.65;;;256.80;2252.80;;;;;;5083533;28;20860;-74
2021/11/18 12:01:49;;;;;;;30.67;18.30;;;256.80;2252.80;;;;;;5102705;28;20024;-73
2021/11/18 12:04:24;;;;;;;28.48;19.25;;;256.90;2252.80;;;;;;5082427;28;20027;-73